Time;durP1;ratioP1;P1;durP2;ratioP2;P2;SDS_P1;SDS_P2;PMS_P1;PMS_P2;Temp;Humidity;BMP_temperature;BMP_pressure;BME280_temperature;BME280_humidity;BME280_pressure;Samples;Min_cycle;Max_cycle;Signal;HPM_P1;HPM_P2
2022/04/16 00:01:05;;;;;;;26.80;25.20;;;11.80;69.90;;;;;;5072877;28;20457;-74
2022/04/16 00:03:33;;;;;;;27.50;26.00;;;11.90;69.50;;;;;;5073731;28;20477;-75
2022/04/16 00:06:01;;;;;;;26.80;25.50;;;11.90;69.60;;;;;;5073757;28;20939;-75
2022/04/16 00:08:30;;;;;;;26.33;25.03;;;11.80;69.60;;;;;;5073636;28;20546;-74
2022/04/16 00:10:57;;;;;;;26.20;24.80;;;11.70;70.00;;;;;;5072942;28;20451;-74
2022/04/16 00:13:24;;;;;;;25.60;24.30;;;11.60;70.40;;;;;;5072950;28;20474;-74
2022/04/16 00:15:52;;;;;;;25.50;24.20;;;11.60;70.50;;;;;;5074252;28;20477;-74
2022/04/16 00:18:20;;;;;;;25.90;24.60;;;11.60;70.20;;;;;;5074487;28;20504;-74
2022/04/16 00:20:49;;;;;;;26.80;25.30;;;11.60;70.00;;;;;;5073767;28;20986;-74
2022/04/16 00:23:18;;;;;;;26.10;24.80;;;11.70;69.80;;;;;;5074443;28;20992;-75
2022/04/16 00:25:47;;;;;;;25.17;23.87;;;11.60;70.00;;;;;;5074492;28;20451;-75
2022/04/16 00:28:14;;;;;;;26.23;24.93;;;11.50;70.20;;;;;;5074886;28;20450;-75
2022/04/16 00:30:41;;;;;;;25.47;24.17;;;11.50;70.20;;;;;;5073454;28;20553;-74
2022/04/16 00:33:08;;;;;;;25.10;23.90;;;11.50;70.00;;;;;;5074615;28;21006;-74
2022/04/16 00:35:36;;;;;;;25.97;24.57;;;11.50;69.90;;;;;;5074128;28;20454;-74
2022/04/16 00:38:03;;;;;;;25.50;24.20;;;11.50;69.80;;;;;;5074539;28;20459;-74
2022/04/16 00:40:30;;;;;;;26.30;24.87;;;11.50;69.70;;;;;;5075561;28;20541;-74
2022/04/16 00:43:00;;;;;;;25.70;24.30;;;11.40;70.40;;;;;;5075242;28;20520;-75
2022/04/16 00:45:28;;;;;;;25.60;24.30;;;11.30;70.40;;;;;;5074953;28;20461;-74
2022/04/16 00:47:55;;;;;;;26.40;25.00;;;11.30;70.40;;;;;;5074279;28;20541;-74
2022/04/16 00:50:22;;;;;;;25.60;24.30;;;11.30;70.60;;;;;;5073997;28;20525;-74
2022/04/16 00:52:49;;;;;;;25.83;24.47;;;11.30;70.40;;;;;;5074437;28;20878;-74
2022/04/16 00:55:17;;;;;;;26.83;25.40;;;11.20;70.60;;;;;;5075154;28;20549;-74
2022/04/16 00:57:44;;;;;;;26.40;25.00;;;11.10;70.90;;;;;;5072745;28;20485;-74
2022/04/16 01:00:14;;;;;;;25.73;24.30;;;11.10;70.90;;;;;;5072035;28;20508;-74
2022/04/16 01:02:42;;;;;;;25.57;24.20;;;11.10;71.00;;;;;;5072702;28;20836;-74
2022/04/16 01:05:12;;;;;;;25.80;24.40;;;11.20;70.80;;;;;;5072686;28;20454;-74
2022/04/16 01:07:53;;;;;;;26.17;24.87;;;11.10;70.90;;;;;;5072634;28;20936;-74
2022/04/16 01:10:20;;;;;;;26.33;24.80;;;11.10;71.20;;;;;;5071793;28;20462;-74
2022/04/16 01:12:47;;;;;;;25.43;24.13;;;11.00;71.30;;;;;;5071982;28;20889;-74
2022/04/16 01:15:17;;;;;;;27.37;25.87;;;11.00;71.30;;;;;;5072060;28;20470;-75
2022/04/16 01:17:44;;;;;;;26.90;25.50;;;11.10;71.40;;;;;;5072248;28;20471;-74
2022/04/16 01:20:11;;;;;;;25.53;24.23;;;11.10;71.30;;;;;;5071703;28;20482;-74
2022/04/16 01:22:40;;;;;;;25.40;24.10;;;11.10;71.20;;;;;;5072067;28;20506;-74
2022/04/16 01:25:08;;;;;;;27.20;25.50;;;11.10;71.10;;;;;;5072131;28;20493;-74
2022/04/16 01:27:36;;;;;;;26.33;25.03;;;11.20;70.50;;;;;;5072197;28;20451;-74
2022/04/16 01:30:04;;;;;;;26.40;24.80;;;11.20;70.60;;;;;;5071667;28;20453;-74
2022/04/16 01:32:32;;;;;;;25.57;24.03;;;11.30;70.50;;;;;;5071910;28;20455;-74
2022/04/16 01:35:00;;;;;;;25.00;23.70;;;11.20;70.40;;;;;;5071894;28;20512;-74
2022/04/16 01:37:31;;;;;;;25.67;24.37;;;11.20;70.50;;;;;;5071958;28;20979;-74
2022/04/16 01:40:02;;;;;;;25.90;24.50;;;11.10;70.80;;;;;;5071598;28;20470;-75
2022/04/16 01:42:29;;;;;;;26.17;24.83;;;11.00;70.90;;;;;;5071820;28;20446;-74
2022/04/16 01:44:58;;;;;;;26.40;24.90;;;10.90;71.20;;;;;;5071967;28;20956;-75
2022/04/16 01:47:24;;;;;;;26.90;25.30;;;10.90;71.10;;;;;;5071791;28;20455;-74
2022/04/16 01:49:52;;;;;;;26.40;25.10;;;10.80;71.20;;;;;;5071297;28;20824;-74
2022/04/16 01:52:19;;;;;;;26.50;25.10;;;10.80;71.20;;;;;;5071659;28;20537;-74
2022/04/16 01:54:46;;;;;;;25.87;24.53;;;10.80;71.30;;;;;;5071897;28;20538;-74
2022/04/16 01:57:18;;;;;;;25.17;23.87;;;10.70;71.40;;;;;;5071764;28;20484;-74
2022/04/16 01:59:45;;;;;;;26.20;24.90;;;10.70;71.50;;;;;;5071339;28;20823;-74
2022/04/16 02:02:12;;;;;;;26.20;24.60;;;10.70;71.60;;;;;;5071704;28;20458;-74
2022/04/16 02:04:39;;;;;;;25.90;24.50;;;10.70;72.00;;;;;;5071743;28;20489;-74
2022/04/16 02:07:06;;;;;;;26.43;25.03;;;10.80;71.70;;;;;;5071807;28;20453;-74
2022/04/16 02:09:33;;;;;;;25.13;23.80;;;10.60;72.00;;;;;;5071439;28;20537;-74
2022/04/16 02:12:00;;;;;;;24.70;23.50;;;10.60;72.00;;;;;;5071639;28;20529;-74
2022/04/16 02:14:28;;;;;;;25.40;24.00;;;10.50;72.10;;;;;;5071484;28;20513;-74
2022/04/16 02:16:57;;;;;;;27.33;25.93;;;10.50;72.20;;;;;;5071387;28;20474;-74
2022/04/16 02:19:24;;;;;;;26.50;25.20;;;10.50;72.40;;;;;;5071025;28;20485;-74
2022/04/16 02:21:51;;;;;;;26.70;25.40;;;10.40;72.70;;;;;;5071639;28;20457;-74
2022/04/16 02:24:18;;;;;;;25.90;24.50;;;10.50;72.50;;;;;;5073757;28;20475;-74
2022/04/16 02:26:46;;;;;;;25.37;24.00;;;10.50;72.90;;;;;;5075108;28;20541;-74
2022/04/16 02:29:13;;;;;;;25.73;24.13;;;10.40;73.00;;;;;;5074813;28;20454;-74
2022/04/16 02:31:44;;;;;;;25.90;24.30;;;10.40;73.10;;;;;;5075159;28;20486;-74
2022/04/16 02:34:11;;;;;;;25.70;24.30;;;10.40;73.10;;;;;;5075343;28;20470;-74
2022/04/16 02:36:40;;;;;;;25.13;23.80;;;10.30;73.30;;;;;;5074960;28;20552;-74
2022/04/16 02:39:08;;;;;;;25.48;24.17;;;10.20;73.40;;;;;;5074865;28;20450;-74
2022/04/16 02:41:35;;;;;;;25.90;24.50;;;10.20;73.60;;;;;;5075072;28;20204;-74
2022/04/16 02:44:02;;;;;;;25.07;23.77;;;10.10;73.70;;;;;;5074910;28;20227;-74
2022/04/16 02:49:15;;;;;;;25.77;24.37;;;10.00;74.70;;;;;;5074511;28;20429;-74
2022/04/16 02:51:43;;;;;;;25.30;24.00;;;9.90;74.90;;;;;;5074899;28;20863;-74
2022/04/16 02:54:09;;;;;;;24.92;23.63;;;9.90;75.00;;;;;;5074855;28;20216;-74
2022/04/16 02:56:36;;;;;;;24.92;23.63;;;9.90;75.00;;;;;;5074679;28;20731;-74
2022/04/16 02:59:03;;;;;;;24.70;23.30;;;9.80;75.10;;;;;;5074459;28;20665;-74
2022/04/16 03:01:30;;;;;;;25.02;23.73;;;9.80;75.40;;;;;;5074585;28;20203;-74
2022/04/16 03:03:57;;;;;;;25.23;23.92;;;9.80;75.50;;;;;;5074701;28;20299;-74
2022/04/16 03:06:25;;;;;;;25.40;24.10;;;9.70;75.30;;;;;;5074957;28;20197;-74
2022/04/16 03:08:52;;;;;;;25.83;24.48;;;9.70;75.40;;;;;;5074512;28;20561;-74
2022/04/16 03:11:19;;;;;;;25.40;24.00;;;9.70;75.50;;;;;;5073957;28;20657;-74
2022/04/16 03:13:47;;;;;;;24.77;23.40;;;9.60;75.70;;;;;;5074230;28;20591;-74
2022/04/16 03:18:58;;;;;;;25.50;24.10;;;9.60;76.10;;;;;;5074189;28;20195;-74
2022/04/16 03:21:26;;;;;;;24.73;23.33;;;9.60;76.20;;;;;;5073998;28;20207;-74
2022/04/16 03:23:53;;;;;;;26.13;24.48;;;9.60;76.20;;;;;;5074135;28;20235;-74
2022/04/16 03:26:20;;;;;;;25.38;23.90;;;9.60;76.30;;;;;;5074275;28;20602;-74
2022/04/16 03:28:47;;;;;;;25.35;24.02;;;9.50;76.40;;;;;;5074147;28;20279;-74
2022/04/16 03:31:14;;;;;;;24.98;23.52;;;9.50;76.70;;;;;;5073615;28;20202;-74
2022/04/16 03:33:41;;;;;;;25.50;24.10;;;9.60;76.60;;;;;;5073799;28;20220;-74
2022/04/16 03:36:07;;;;;;;24.73;23.42;;;9.60;76.80;;;;;;5073525;28;20218;-74
2022/04/16 03:38:36;;;;;;;25.92;24.40;;;9.60;76.70;;;;;;5073803;28;20252;-74
2022/04/16 03:41:02;;;;;;;26.02;24.73;;;9.70;76.40;;;;;;5073387;28;20279;-74
2022/04/16 03:43:29;;;;;;;25.67;24.27;;;9.70;76.20;;;;;;5073822;28;20216;-74
2022/04/16 03:45:58;;;;;;;25.73;24.42;;;9.70;76.20;;;;;;5073896;28;20447;-74
2022/04/16 03:48:25;;;;;;;25.33;24.02;;;9.70;76.00;;;;;;5073621;28;20353;-74
2022/04/16 03:50:52;;;;;;;25.38;23.98;;;9.70;76.00;;;;;;5073308;28;20193;-74
2022/04/16 03:53:19;;;;;;;24.98;23.65;;;9.80;75.70;;;;;;5073535;28;20242;-74
2022/04/16 04:01:16;;;;;;;26.27;24.88;;;9.70;76.40;;;;;;5073026;28;20713;-74
2022/04/16 04:03:45;;;;;;;25.42;24.02;;;9.70;76.30;;;;;;5073484;28;20216;-74
2022/04/16 04:06:11;;;;;;;25.20;23.80;;;9.70;76.50;;;;;;5073438;28;20657;-74
2022/04/16 04:08:38;;;;;;;25.17;23.77;;;9.60;77.00;;;;;;5085472;22;20247;-74
2022/04/16 04:11:07;;;;;;;24.85;23.55;;;9.50;77.20;;;;;;5093247;28;20559;-74
2022/04/16 04:13:34;;;;;;;25.63;24.23;;;9.50;77.50;;;;;;5093658;28;20299;-74
2022/04/16 04:16:00;;;;;;;24.90;23.50;;;9.50;77.50;;;;;;5093819;28;20194;-74
2022/04/16 04:18:27;;;;;;;25.10;23.80;;;9.50;77.10;;;;;;5093538;28;20310;-74
2022/04/16 04:20:54;;;;;;;25.17;23.77;;;9.50;77.20;;;;;;5093118;28;20286;-74
2022/04/16 04:23:22;;;;;;;25.80;24.40;;;9.50;77.20;;;;;;5093492;28;20302;-74
2022/04/16 04:25:49;;;;;;;26.08;24.48;;;9.40;77.40;;;;;;5093326;28;20200;-74
2022/04/16 04:28:17;;;;;;;25.30;23.80;;;9.40;77.60;;;;;;5093174;28;20210;-74
2022/04/16 04:30:44;;;;;;;27.10;25.60;;;9.30;77.80;;;;;;5092873;28;20195;-74
2022/04/16 04:33:11;;;;;;;26.00;24.60;;;9.40;77.10;;;;;;5093001;28;20616;-74
2022/04/16 04:35:38;;;;;;;27.35;25.75;;;9.40;76.80;;;;;;5092975;28;20249;-74
2022/04/16 04:38:05;;;;;;;26.13;24.73;;;9.30;76.90;;;;;;5092995;28;20224;-74
2022/04/16 04:40:32;;;;;;;27.23;25.67;;;9.40;76.50;;;;;;5092867;28;20226;-74
2022/04/16 04:42:59;;;;;;;26.33;24.83;;;9.40;76.60;;;;;;5092922;28;20298;-74
2022/04/16 04:45:27;;;;;;;25.48;24.17;;;9.40;76.70;;;;;;5092925;28;20195;-74
2022/04/16 04:47:54;;;;;;;26.67;25.10;;;9.40;76.60;;;;;;5092263;28;20200;-74
2022/04/16 04:50:21;;;;;;;25.80;24.40;;;9.50;76.60;;;;;;5092313;28;20200;-74
2022/04/16 04:52:48;;;;;;;25.38;24.08;;;9.70;76.20;;;;;;5092820;28;20307;-74
2022/04/16 04:55:15;;;;;;;25.00;23.70;;;9.70;76.20;;;;;;5092960;28;20231;-74
2022/04/16 04:57:43;;;;;;;26.58;25.05;;;9.70;76.50;;;;;;5092693;28;20219;-74
2022/04/16 05:00:12;;;;;;;26.02;24.63;;;9.80;76.40;;;;;;5092093;28;20196;-74
2022/04/16 05:02:41;;;;;;;29.10;27.60;;;9.80;76.30;;;;;;5092439;28;20761;-74
2022/04/16 05:05:09;;;;;;;26.90;25.50;;;9.90;76.00;;;;;;5092854;28;20222;-74
2022/04/16 05:07:36;;;;;;;27.00;25.42;;;9.90;76.10;;;;;;5092821;28;20288;-74
2022/04/16 05:10:04;;;;;;;27.17;25.67;;;10.00;75.70;;;;;;5092014;28;20664;-74
2022/04/16 05:12:31;;;;;;;27.35;25.85;;;10.00;75.30;;;;;;5092399;28;20231;-74
2022/04/16 05:14:58;;;;;;;27.20;25.75;;;10.10;75.30;;;;;;5092155;28;20200;-74
2022/04/16 05:17:25;;;;;;;26.58;25.08;;;10.10;75.20;;;;;;5092358;28;20222;-74
2022/04/16 05:19:53;;;;;;;27.05;25.55;;;10.20;75.20;;;;;;5091908;28;20192;-74
2022/04/16 05:22:20;;;;;;;26.23;24.83;;;10.20;74.70;;;;;;5092448;28;20199;-74
2022/04/16 05:24:47;;;;;;;27.00;25.50;;;10.20;74.50;;;;;;5092372;28;20200;-74
2022/04/16 05:27:15;;;;;;;27.77;26.17;;;10.30;73.60;;;;;;5092208;28;20942;-74
2022/04/16 05:30:05;;;;;;;27.23;25.80;;;10.30;73.40;;;;;;5091783;28;20449;-74
2022/04/16 05:32:36;;;;;;;26.57;25.07;;;10.30;73.20;;;;;;5092316;28;20982;-74
2022/04/16 05:35:07;;;;;;;26.43;24.97;;;10.30;73.20;;;;;;5092425;28;20481;-74
2022/04/16 05:37:34;;;;;;;26.47;24.90;;;10.20;73.50;;;;;;5092294;28;20898;-74
2022/04/16 05:40:01;;;;;;;25.70;24.30;;;10.20;73.30;;;;;;5091625;28;20454;-74
2022/04/16 05:42:28;;;;;;;30.43;28.70;;;10.20;73.40;;;;;;5092248;28;20662;-74
2022/04/16 05:45:00;;;;;;;27.10;25.60;;;10.20;73.40;;;;;;5092360;28;20482;-74
2022/04/16 05:47:27;;;;;;;27.90;26.23;;;10.30;73.30;;;;;;5092348;28;20488;-74
2022/04/16 05:49:55;;;;;;;27.10;25.50;;;10.40;73.20;;;;;;5091494;28;20449;-74
2022/04/16 05:52:24;;;;;;;26.37;24.97;;;10.40;72.80;;;;;;5091997;28;20465;-74
2022/04/16 05:54:52;;;;;;;26.93;25.43;;;10.50;72.50;;;;;;5092086;28;20457;-74
2022/04/16 05:57:19;;;;;;;26.07;24.57;;;10.60;72.40;;;;;;5092809;28;20522;-74
2022/04/16 05:59:47;;;;;;;25.83;24.43;;;10.70;71.90;;;;;;5095591;28;20554;-74
2022/04/16 06:02:14;;;;;;;27.63;26.00;;;10.70;71.70;;;;;;5096258;28;20570;-74
2022/04/16 06:04:41;;;;;;;27.03;25.53;;;10.70;71.70;;;;;;5095948;28;20552;-74
2022/04/16 06:07:08;;;;;;;26.97;25.47;;;10.70;71.80;;;;;;5096131;28;20612;-74
2022/04/16 06:09:36;;;;;;;28.23;26.70;;;10.70;71.60;;;;;;5095455;28;20457;-74
2022/04/16 06:12:04;;;;;;;28.27;26.30;;;10.60;72.10;;;;;;5096074;28;21012;-74
2022/04/16 06:14:32;;;;;;;25.63;24.23;;;10.70;72.10;;;;;;5095390;28;20998;-74
2022/04/16 06:16:59;;;;;;;26.60;25.10;;;10.80;71.80;;;;;;5095881;28;20565;-74
2022/04/16 06:19:26;;;;;;;27.43;25.83;;;10.80;71.70;;;;;;5095039;28;20969;-74
2022/04/16 06:21:53;;;;;;;27.43;25.83;;;10.90;71.20;;;;;;5095763;28;20568;-74
2022/04/16 06:24:19;;;;;;;26.97;25.47;;;10.90;71.30;;;;;;5095682;28;20469;-74
2022/04/16 06:26:48;;;;;;;26.67;24.97;;;10.80;71.50;;;;;;5095697;28;20451;-74
2022/04/16 06:29:15;;;;;;;29.67;27.97;;;10.80;71.70;;;;;;5095215;28;20449;-74
2022/04/16 06:31:42;;;;;;;25.80;24.30;;;10.80;71.30;;;;;;5095505;28;20453;-74
2022/04/16 06:34:09;;;;;;;26.90;25.40;;;10.90;71.20;;;;;;5095359;28;20473;-74
2022/04/16 06:36:37;;;;;;;25.90;24.50;;;10.90;70.70;;;;;;5095496;28;20823;-74
2022/04/16 06:39:04;;;;;;;28.70;26.97;;;10.90;71.20;;;;;;5095102;28;21123;-74
2022/04/16 06:41:31;;;;;;;26.23;24.83;;;10.90;71.40;;;;;;5095149;28;20449;-74
2022/04/16 06:43:59;;;;;;;28.23;26.70;;;10.90;71.00;;;;;;5095202;28;20553;-74
2022/04/16 06:46:26;;;;;;;27.10;25.60;;;10.90;71.00;;;;;;5095177;28;20449;-74
2022/04/16 06:48:53;;;;;;;25.97;24.47;;;10.60;72.00;;;;;;5095169;28;20449;-74
2022/04/16 06:51:20;;;;;;;25.83;24.43;;;10.60;72.30;;;;;;5094760;28;20450;-74
2022/04/16 06:53:47;;;;;;;26.60;25.00;;;10.70;72.30;;;;;;5095158;28;20513;-74
2022/04/16 06:56:13;;;;;;;27.70;26.30;;;10.90;71.50;;;;;;5095259;28;20528;-74
2022/04/16 06:58:40;;;;;;;28.47;26.90;;;11.00;71.30;;;;;;5094800;28;20561;-74
2022/04/16 07:01:09;;;;;;;27.73;26.03;;;11.00;70.90;;;;;;5094555;28;20978;-74
2022/04/16 07:03:36;;;;;;;27.07;25.37;;;10.90;71.50;;;;;;5095027;28;20477;-74
2022/04/16 07:06:03;;;;;;;25.60;24.20;;;11.00;70.90;;;;;;5095081;28;20455;-74
2022/04/16 07:08:30;;;;;;;28.30;26.70;;;11.10;70.90;;;;;;5094357;28;20449;-74
2022/04/16 07:10:57;;;;;;;27.80;26.20;;;11.00;71.10;;;;;;5093570;28;20495;-74
2022/04/16 07:13:24;;;;;;;26.07;24.57;;;11.10;70.70;;;;;;5094913;28;20477;-74
2022/04/16 07:15:50;;;;;;;28.33;26.73;;;10.80;71.80;;;;;;5094291;28;20966;-74
2022/04/16 07:18:20;;;;;;;26.60;25.00;;;10.90;71.70;;;;;;5094528;28;20480;-74
2022/04/16 07:20:47;;;;;;;26.20;24.70;;;11.00;71.30;;;;;;5094144;28;20537;-74
2022/04/16 07:23:14;;;;;;;27.70;26.00;;;11.10;70.70;;;;;;5094610;28;20548;-74
2022/04/16 07:25:41;;;;;;;26.57;25.03;;;11.10;70.80;;;;;;5094808;28;20541;-74
2022/04/16 07:28:08;;;;;;;26.73;25.23;;;11.10;70.90;;;;;;5094486;28;20450;-74
2022/04/16 07:30:35;;;;;;;29.70;28.00;;;11.00;71.30;;;;;;5094049;28;20461;-74
2022/04/16 07:33:02;;;;;;;27.40;25.80;;;11.00;71.30;;;;;;5094279;28;20512;-74
2022/04/16 07:35:30;;;;;;;26.10;24.60;;;11.00;71.50;;;;;;5094373;28;21034;-74
2022/04/16 07:37:57;;;;;;;28.40;26.70;;;11.10;71.20;;;;;;5093987;28;20450;-74
2022/04/16 07:40:25;;;;;;;28.13;26.43;;;11.10;71.40;;;;;;5093789;28;20532;-74
2022/04/16 07:42:52;;;;;;;28.57;26.87;;;11.20;71.10;;;;;;5094039;28;20476;-74
2022/04/16 07:45:21;;;;;;;26.97;25.17;;;11.50;70.20;;;;;;5094016;28;20449;-74
2022/04/16 07:47:48;;;;;;;27.13;25.43;;;11.40;70.20;;;;;;5094134;28;20441;-74
2022/04/16 07:50:16;;;;;;;26.53;25.00;;;11.60;70.00;;;;;;5093535;28;20445;-74
2022/04/16 07:52:45;;;;;;;29.97;27.70;;;11.60;69.70;;;;;;5093951;28;20465;-74
2022/04/16 07:55:12;;;;;;;28.90;27.07;;;11.60;70.10;;;;;;5093775;28;20504;-74
2022/04/16 07:57:39;;;;;;;29.50;27.47;;;11.70;69.80;;;;;;5093794;28;20449;-74
2022/04/16 08:00:08;;;;;;;26.50;24.80;;;11.70;69.90;;;;;;5093298;28;20469;-74
2022/04/16 08:02:35;;;;;;;27.40;25.70;;;11.70;69.90;;;;;;5093798;28;20454;-74
2022/04/16 08:05:02;;;;;;;28.50;26.70;;;11.70;70.00;;;;;;5093706;28;20449;-74
2022/04/16 08:07:30;;;;;;;27.20;25.40;;;11.80;70.00;;;;;;5093945;28;20453;-74
2022/04/16 08:09:58;;;;;;;28.10;26.10;;;11.80;70.20;;;;;;5093063;28;20445;-74
2022/04/16 08:12:25;;;;;;;28.67;26.97;;;12.10;70.10;;;;;;5093620;28;20934;-74
2022/04/16 08:14:52;;;;;;;27.27;25.63;;;12.20;69.20;;;;;;5093076;28;20999;-74
2022/04/16 08:17:19;;;;;;;29.47;27.67;;;12.50;68.70;;;;;;5093586;28;20488;-74
2022/04/16 08:19:46;;;;;;;29.00;26.90;;;12.50;68.50;;;;;;5092696;28;20484;-74
2022/04/16 08:22:17;;;;;;;28.40;26.70;;;12.50;68.70;;;;;;5093496;28;20804;-74
2022/04/16 08:24:54;;;;;;;30.47;28.53;;;12.50;68.80;;;;;;5093453;28;20457;-74
2022/04/16 08:27:22;;;;;;;28.50;26.70;;;12.50;68.30;;;;;;5093324;28;20452;-75
2022/04/16 08:29:49;;;;;;;29.47;27.57;;;12.60;68.00;;;;;;5093139;28;20531;-75
2022/04/16 08:32:16;;;;;;;29.87;28.07;;;12.50;68.30;;;;;;5093419;28;20454;-74
2022/04/16 08:34:43;;;;;;;28.37;26.57;;;12.40;68.10;;;;;;5093132;28;20820;-74
2022/04/16 08:37:10;;;;;;;28.93;26.87;;;12.80;67.60;;;;;;5093292;28;20936;-74
2022/04/16 08:39:37;;;;;;;31.97;29.90;;;12.80;67.50;;;;;;5092461;28;20564;-75
2022/04/16 08:42:04;;;;;;;27.70;25.90;;;12.70;67.60;;;;;;5093319;28;20457;-74
2022/04/16 08:44:34;;;;;;;28.67;26.97;;;12.90;67.60;;;;;;5093030;28;20473;-74
2022/04/16 08:47:02;;;;;;;28.40;26.60;;;13.10;66.80;;;;;;5093224;28;20449;-75
2022/04/16 08:49:30;;;;;;;27.60;25.80;;;13.10;66.50;;;;;;5092322;28;20492;-75
2022/04/16 08:51:57;;;;;;;27.93;26.13;;;13.10;66.30;;;;;;5093005;28;20544;-74
2022/04/16 08:54:25;;;;;;;28.30;26.50;;;13.10;66.30;;;;;;5092978;28;20502;-74
2022/04/16 08:56:51;;;;;;;28.47;26.63;;;13.10;66.50;;;;;;5092992;28;20567;-74
2022/04/16 08:59:18;;;;;;;28.00;26.20;;;13.10;66.60;;;;;;5092136;28;20478;-74
2022/04/16 09:01:46;;;;;;;28.00;26.27;;;13.40;65.90;;;;;;5092766;28;20818;-75
2022/04/16 09:04:24;;;;;;;30.10;28.30;;;13.20;65.80;;;;;;5092721;28;20556;-75
2022/04/16 09:06:58;;;;;;;29.23;27.33;;;13.40;65.40;;;;;;5093090;28;20445;-75
2022/04/16 09:09:25;;;;;;;27.90;26.20;;;13.30;65.40;;;;;;5091930;28;20460;-75
2022/04/16 09:11:52;;;;;;;27.90;26.20;;;13.30;65.90;;;;;;5092352;28;20485;-75
2022/04/16 09:14:19;;;;;;;30.60;28.70;;;13.10;65.90;;;;;;5092147;28;20513;-75
2022/04/16 09:16:47;;;;;;;28.47;26.67;;;13.10;66.50;;;;;;5092378;28;20541;-74
2022/04/16 09:19:17;;;;;;;29.50;27.60;;;13.00;67.10;;;;;;5091754;28;20477;-75
2022/04/16 09:21:45;;;;;;;29.27;27.47;;;12.80;67.70;;;;;;5092379;28;20486;-75
2022/04/16 09:24:12;;;;;;;29.20;27.37;;;12.70;68.00;;;;;;5092579;28;20470;-75
2022/04/16 09:26:40;;;;;;;30.13;28.20;;;12.80;68.20;;;;;;5092381;28;20812;-74
2022/04/16 09:29:08;;;;;;;32.77;30.43;;;12.90;67.90;;;;;;5092155;28;20554;-75
2022/04/16 09:31:38;;;;;;;30.23;28.37;;;12.70;68.00;;;;;;5092337;28;20942;-74
2022/04/16 09:34:06;;;;;;;32.47;30.30;;;12.50;68.50;;;;;;5092287;28;20503;-74
2022/04/16 09:36:39;;;;;;;31.83;29.63;;;12.60;68.30;;;;;;5092490;28;20445;-74
2022/04/16 09:39:08;;;;;;;31.77;29.57;;;12.70;68.10;;;;;;5092920;28;20477;-75
2022/04/16 09:41:36;;;;;;;31.23;29.13;;;12.70;68.30;;;;;;5092932;28;20458;-74
2022/04/16 09:44:04;;;;;;;30.27;28.37;;;12.80;68.60;;;;;;5093040;28;20485;-74
2022/04/16 09:46:32;;;;;;;30.60;28.60;;;12.80;68.20;;;;;;5092972;28;20454;-75
2022/04/16 09:49:03;;;;;;;30.70;28.70;;;12.80;68.00;;;;;;5092427;28;20449;-74
2022/04/16 09:51:36;;;;;;;30.50;28.60;;;12.90;68.00;;;;;;5092035;28;20457;-74
2022/04/16 09:54:07;;;;;;;30.60;28.60;;;12.80;67.90;;;;;;5091890;28;20473;-74
2022/04/16 09:56:36;;;;;;;30.40;28.40;;;12.60;67.80;;;;;;5092082;28;20465;-74
2022/04/16 09:59:05;;;;;;;31.03;28.93;;;12.40;68.90;;;;;;5091651;28;20473;-75
2022/04/16 10:01:32;;;;;;;30.57;28.50;;;12.40;68.80;;;;;;5091814;28;20457;-75
2022/04/16 10:04:00;;;;;;;31.47;29.37;;;12.40;68.80;;;;;;5091904;28;20544;-74
2022/04/16 10:06:29;;;;;;;31.07;28.97;;;12.40;69.10;;;;;;5091924;28;20446;-74
2022/04/16 10:08:58;;;;;;;29.10;27.30;;;12.30;69.10;;;;;;5091725;28;20453;-75
2022/04/16 10:12:59;;;;;;;28.47;26.70;;;12.30;68.50;;;;;;5091509;28;20446;-75
2022/04/16 10:14:39;;;;;;;29.43;27.43;;;12.60;67.40;;;;;;5091241;28;20481;-75
2022/04/16 10:17:16;;;;;;;29.43;27.53;;;13.20;65.10;;;;;;5091760;28;20489;-74
2022/04/16 10:19:47;;;;;;;28.90;27.10;;;13.40;64.10;;;;;;5091156;28;21061;-74
2022/04/16 10:22:23;;;;;;;29.07;27.20;;;13.50;63.50;;;;;;5092016;28;20476;-74
2022/04/16 10:24:51;;;;;;;30.07;28.17;;;13.80;62.80;;;;;;5091828;28;20445;-74
2022/04/16 10:27:23;;;;;;;29.80;27.90;;;13.90;63.00;;;;;;5091737;28;20807;-75
2022/04/16 10:29:50;;;;;;;32.50;30.70;;;14.10;61.90;;;;;;5091176;28;20454;-75
2022/04/16 10:32:18;;;;;;;29.43;27.53;;;14.00;62.00;;;;;;5091668;28;20464;-75
2022/04/16 10:34:45;;;;;;;31.70;29.50;;;14.00;62.00;;;;;;5091594;28;20944;-75
2022/04/16 10:37:23;;;;;;;29.43;27.53;;;14.00;61.90;;;;;;5091626;28;20477;-75
2022/04/16 10:39:54;;;;;;;33.00;30.80;;;14.10;62.20;;;;;;5090927;28;21016;-75
2022/04/16 10:42:31;;;;;;;30.60;28.50;;;14.40;60.60;;;;;;5091741;28;20892;-75
2022/04/16 10:45:09;;;;;;;31.37;29.40;;;14.30;61.20;;;;;;5093350;28;20938;-75
2022/04/16 10:47:38;;;;;;;29.87;28.07;;;14.10;61.20;;;;;;5095359;28;20457;-75
2022/04/16 10:50:09;;;;;;;29.77;27.87;;;14.20;60.30;;;;;;5094595;28;20502;-75
2022/04/16 10:52:36;;;;;;;30.50;28.50;;;14.00;60.70;;;;;;5094923;28;20914;-75
2022/04/16 10:55:07;;;;;;;30.30;28.37;;;14.10;60.10;;;;;;5094990;28;20540;-75
2022/04/16 10:57:36;;;;;;;29.97;28.00;;;14.20;60.10;;;;;;5095142;28;21030;-75
2022/04/16 11:00:21;;;;;;;32.40;30.37;;;14.10;60.60;;;;;;5094481;28;20564;-75
2022/04/16 11:02:48;;;;;;;31.07;29.17;;;14.30;60.00;;;;;;5094904;28;20552;-75
2022/04/16 11:05:15;;;;;;;29.47;27.60;;;14.30;60.00;;;;;;5094833;28;20965;-75
2022/04/16 11:07:42;;;;;;;28.77;26.97;;;14.50;59.60;;;;;;5095187;28;20840;-75
2022/04/16 11:10:11;;;;;;;28.10;26.40;;;14.60;59.10;;;;;;5094176;28;20527;-75
2022/04/16 11:12:39;;;;;;;29.00;26.90;;;15.00;58.10;;;;;;5094794;28;20830;-75
2022/04/16 11:15:10;;;;;;;27.83;25.97;;;15.00;57.60;;;;;;5094331;28;20545;-75
2022/04/16 11:17:37;;;;;;;28.67;26.80;;;15.10;56.70;;;;;;5094767;28;20450;-75
2022/04/16 11:20:06;;;;;;;28.60;26.80;;;14.90;57.00;;;;;;5093771;28;20560;-75
2022/04/16 11:22:33;;;;;;;28.17;26.37;;;15.00;56.40;;;;;;5094649;28;20454;-75
2022/04/16 11:25:05;;;;;;;31.27;29.50;;;14.90;56.10;;;;;;5094511;28;20954;-75
2022/04/16 11:35:58;;;;;;;27.57;25.87;;;14.30;57.10;;;;;;5094422;28;20449;-75
2022/04/16 11:38:29;;;;;;;28.03;26.23;;;14.60;56.50;;;;;;5094278;28;20449;-75
2022/04/16 11:40:57;;;;;;;28.00;26.30;;;14.50;56.90;;;;;;5093623;28;20485;-75
2022/04/16 11:43:28;;;;;;;30.30;28.50;;;14.60;57.00;;;;;;5094464;28;20470;-75
2022/04/16 11:45:56;;;;;;;31.07;29.07;;;14.60;56.70;;;;;;5094335;28;20532;-75
2022/04/16 11:48:23;;;;;;;27.07;25.27;;;14.90;56.10;;;;;;5094015;28;20852;-75
2022/04/16 11:50:50;;;;;;;31.00;29.00;;;15.00;54.30;;;;;;5093686;28;20449;-75
2022/04/16 11:53:17;;;;;;;28.30;26.57;;;15.00;54.50;;;;;;5094044;28;20477;-74
2022/04/16 11:55:48;;;;;;;30.87;29.07;;;14.80;55.40;;;;;;5093742;28;20467;-74
2022/04/16 11:58:16;;;;;;;28.93;27.13;;;14.90;55.90;;;;;;5093910;28;20454;-75
2022/04/16 12:00:54;;;;;;;28.73;27.00;;;15.10;55.10;;;;;;5093188;28;20481;-75
2022/04/16 12:03:21;;;;;;;31.80;29.87;;;15.00;55.10;;;;;;5093836;28;20473;-75
2022/04/16 12:05:49;;;;;;;29.50;27.70;;;14.90;55.20;;;;;;5093865;28;20449;-74
2022/04/16 12:08:17;;;;;;;28.87;26.97;;;15.00;54.10;;;;;;5093797;28;20548;-75
2022/04/16 12:10:46;;;;;;;32.07;30.27;;;14.70;54.70;;;;;;5093166;28;20446;-75
2022/04/16 12:13:14;;;;;;;29.93;28.17;;;14.60;54.50;;;;;;5093581;28;20477;-75
2022/04/16 12:15:42;;;;;;;28.37;26.67;;;14.50;54.00;;;;;;5093364;28;20481;-75
2022/04/16 12:18:12;;;;;;;28.33;26.73;;;14.30;54.70;;;;;;5093442;28;20458;-74
2022/04/16 12:20:43;;;;;;;30.97;28.97;;;14.30;55.10;;;;;;5092993;28;20917;-75
2022/04/16 12:23:13;;;;;;;29.00;27.20;;;14.50;54.50;;;;;;5093442;28;20476;-75
2022/04/16 12:25:42;;;;;;;28.60;26.90;;;14.30;54.60;;;;;;5093342;28;20450;-74
2022/04/16 12:28:11;;;;;;;29.63;27.83;;;14.20;55.50;;;;;;5093426;28;20446;-75
2022/04/16 12:30:39;;;;;;;30.03;28.10;;;14.30;54.80;;;;;;5092661;28;20446;-75
2022/04/16 12:33:07;;;;;;;27.97;26.30;;;14.30;54.20;;;;;;5093377;28;20500;-74
2022/04/16 12:35:38;;;;;;;28.53;26.83;;;14.30;53.80;;;;;;5093090;28;20460;-75
2022/04/16 12:38:06;;;;;;;29.23;27.40;;;14.40;54.00;;;;;;5093350;28;20934;-75
2022/04/16 12:40:34;;;;;;;29.77;27.90;;;14.80;53.40;;;;;;5092450;28;20819;-75
2022/04/16 12:43:02;;;;;;;28.87;26.97;;;14.70;53.60;;;;;;5093883;28;20462;-74
2022/04/16 12:45:31;;;;;;;28.93;27.13;;;15.10;53.50;;;;;;5094104;28;20485;-75
2022/04/16 12:47:58;;;;;;;31.07;29.13;;;15.40;51.80;;;;;;5094455;28;20504;-75
2022/04/16 12:50:26;;;;;;;28.50;26.80;;;15.40;51.50;;;;;;5093417;28;20452;-74
2022/04/16 12:52:54;;;;;;;29.97;28.17;;;15.50;51.50;;;;;;5092981;28;20553;-75